Disclaimer

Please do not use the information listed here in-flight or in-navigation, as they are not provided to us by the airports but are provided by volunteers, so they might be outdated.

Search


Regions


Airport information page

Radio informations:
TWR/APP - 118.1 MHz

Airport informations:
Latitude: 54° 50' 35.80" S
Longitude: 068° 17' 44.70" W
Elevation: 71 feet - 22 meters
Operating hours: Remarks
Operating agency: Civil government, landing fees and diplomatic clearance may be required
Timezone: UTC-3
Fuel: Jet A1, without icing nhibitor.

100/130 MIL Spec, low lead, aviation gasoline (BLUE)

Runway information:
07/25 - 9186 x 148 feet< - >2800 x 45 meters

Recent METARs:
SAWH 190700Z 29014KT 9999 SCT040 08/M02 Q0980
SAWH 190800Z 29014KT 9999 SCT040 08/M02 Q0980
SAWH 190800Z 29014KT 9999 SCT040 08/M02 Q0980

Airport on the map: